Time;durP1;ratioP1;P1;durP2;ratioP2;P2;SDS_P1;SDS_P2;PMS_P1;PMS_P2;Temp;Humidity;BMP_temperature;BMP_pressure;BME280_temperature;BME280_humidity;BME280_pressure;Samples;Min_cycle;Max_cycle;Signal;HPM_P1;HPM_P2
2023/10/13 00:02:47;;;;;;;;;;;;;;;;;;6330141;27;20389;-81
2023/10/13 00:05:48;;;;;;;;;;;;;;;;;;6301239;28;19912;-82
2023/10/13 00:08:48;;;;;;;;;;;;;;;;;;6303797;28;19916;-81
2023/10/13 00:11:48;;;;;;;;;;;;;;;;;;6336863;28;20407;-82
2023/10/13 00:14:50;;;;;;;;;;;;;;;;;;6308491;28;19926;-81
2023/10/13 00:17:51;;;;;;;;;;;;;;;;;;6331327;28;19963;-81
2023/10/13 00:20:51;;;;;;;;;;;;;;;;;;6330584;28;19908;-81
2023/10/13 00:23:54;;;;;;;;;;;;;;;;;;6324909;28;19908;-81
2023/10/13 00:26:54;;;;;;;;;;;;;;;;;;6314278;28;20031;-82
2023/10/13 00:30:15;;;;;;;;;;;;;;;;;;6326125;28;19918;-82
2023/10/13 00:33:14;;;;;;;;;;;;;;;;;;6326163;28;20376;-82
2023/10/13 00:36:19;;;;;;;;;;;;;;;;;;6340572;28;20400;-82
2023/10/13 00:39:19;;;;;;;;;;;;;;;;;;6317765;28;19913;-81
2023/10/13 00:42:23;;;;;;;;;;;;;;;;;;6311755;28;20391;-81
2023/10/13 00:45:23;;;;;;;;;;;;;;;;;;6334113;28;19911;-81
2023/10/13 00:48:29;;;;;;;;;;;;;;;;;;6329457;28;19916;-82
2023/10/13 00:51:34;;;;;;;;;;;;;;;;;;6314446;28;20290;-81
2023/10/13 00:54:35;;;;;;;;;;;;;;;;;;6316282;27;20254;-82
2023/10/13 00:57:36;;;;;;;;;;;;;;;;;;6303203;28;19922;-81
2023/10/13 01:00:46;;;;;;;;;;;;;;;;;;6345728;27;19934;-82
2023/10/13 01:03:50;;;;;;;;;;;;;;;;;;6336737;28;20321;-81
2023/10/13 01:06:51;;;;;;;;;;;;;;;;;;6320215;28;19934;-81
2023/10/13 01:09:51;;;;;;;;;;;;;;;;;;6344302;28;19908;-82
2023/10/13 01:12:52;;;;;;;;;;;;;;;;;;6335968;28;19908;-82
2023/10/13 01:15:53;;;;;;;;;;;;;;;;;;6334533;27;19915;-82
2023/10/13 01:18:59;;;;;;;;;;;;;;;;;;6332850;28;19908;-82
2023/10/13 01:22:04;;;;;;;;;;;;;;;;;;6325104;28;19916;-83
2023/10/13 01:25:05;;;;;;;;;;;;;;;;;;6328147;27;20066;-83
2023/10/13 01:28:07;;;;;;;;;;;;;;;;;;6320584;28;19966;-82
2023/10/13 01:31:08;;;;;;;;;;;;;;;;;;6339113;28;19908;-81
2023/10/13 01:34:09;;;;;;;;;;;;;;;;;;6322006;28;19923;-82
2023/10/13 01:37:10;;;;;;;;;;;;;;;;;;6321495;28;20547;-83
2023/10/13 01:40:11;;;;;;;;;;;;;;;;;;6309389;28;19912;-82
2023/10/13 01:43:11;;;;;;;;;;;;;;;;;;6322556;27;19920;-82
2023/10/13 01:46:15;;;;;;;;;;;;;;;;;;6319810;28;19937;-83
2023/10/13 01:49:16;;;;;;;;;;;;;;;;;;6341433;27;20457;-83
2023/10/13 01:52:16;;;;;;;;;;;;;;;;;;6341991;27;19922;-83
2023/10/13 01:55:17;;;;;;;;;;;;;;;;;;6311795;27;19912;-82
2023/10/13 01:58:18;;;;;;;;;;;;;;;;;;6312705;28;19924;-82
2023/10/13 02:01:27;;;;;;;;;;;;;;;;;;6324447;27;19915;-83
2023/10/13 02:04:34;;;;;;;;;;;;;;;;;;6318561;28;20330;-83
2023/10/13 02:07:34;;;;;;;;;;;;;;;;;;6330649;28;20018;-83
2023/10/13 02:10:34;;;;;;;;;;;;;;;;;;6332676;28;19916;-83
2023/10/13 02:13:41;;;;;;;;;;;;;;;;;;6317793;27;20378;-83
2023/10/13 02:16:41;;;;;;;;;;;;;;;;;;6340264;27;19970;-83
2023/10/13 02:19:45;;;;;;;;;;;;;;;;;;6324678;28;19916;-82
2023/10/13 02:22:51;;;;;;;;;;;;;;;;;;6321737;28;19908;-83
2023/10/13 02:26:00;;;;;;;;;;;;;;;;;;6340075;27;19912;-83
2023/10/13 02:29:05;;;;;;;;;;;;;;;;;;6325104;28;20225;-82
2023/10/13 02:32:12;;;;;;;;;;;;;;;;;;6322419;28;19908;-83
2023/10/13 02:35:17;;;;;;;;;;;;;;;;;;6320406;28;20413;-83
2023/10/13 02:38:26;;;;;;;;;;;;;;;;;;6315524;28;20003;-83
2023/10/13 02:41:28;;;;;;;;;;;;;;;;;;6311924;28;19913;-83
2023/10/13 02:44:30;;;;;;;;;;;;;;;;;;6310711;28;20033;-83
2023/10/13 02:47:31;;;;;;;;;;;;;;;;;;6314265;28;20469;-83
2023/10/13 02:50:33;;;;;;;;;;;;;;;;;;6329463;27;19912;-83
2023/10/13 02:53:33;;;;;;;;;;;;;;;;;;6333758;27;19965;-83
2023/10/13 02:56:33;;;;;;;;;;;;;;;;;;6316652;28;20046;-88
2023/10/13 02:59:51;;;;;;;;;;;;;;;;;;6323092;28;19924;-89
2023/10/13 03:02:58;;;;;;;;;;;;;;;;;;6328149;27;19908;-88
2023/10/13 03:05:59;;;;;;;;;;;;;;;;;;6341214;28;19922;-88
2023/10/13 03:09:19;;;;;;;;;;;;;;;;;;6311479;28;19908;-88
2023/10/13 03:12:19;;;;;;;;;;;;;;;;;;6318395;28;20348;-89
2023/10/13 03:15:22;;;;;;;;;;;;;;;;;;6324125;28;19918;-88
2023/10/13 03:18:22;;;;;;;;;;;;;;;;;;6317628;28;19916;-82
2023/10/13 03:21:29;;;;;;;;;;;;;;;;;;6315057;28;20412;-83
2023/10/13 03:24:35;;;;;;;;;;;;;;;;;;6327845;28;19918;-82
2023/10/13 03:27:40;;;;;;;;;;;;;;;;;;6319354;28;19908;-83
2023/10/13 03:30:43;;;;;;;;;;;;;;;;;;6316784;28;19912;-83
2023/10/13 03:33:46;;;;;;;;;;;;;;;;;;6322212;28;21081;-82
2023/10/13 03:36:57;;;;;;;;;;;;;;;;;;6306275;28;19951;-83
2023/10/13 03:39:59;;;;;;;;;;;;;;;;;;6301816;28;20290;-83
2023/10/13 03:43:11;;;;;;;;;;;;;;;;;;6334068;28;20030;-83
2023/10/13 03:46:11;;;;;;;;;;;;;;;;;;6300616;28;19912;-81
2023/10/13 03:49:12;;;;;;;;;;;;;;;;;;6303384;28;20389;-81
2023/10/13 03:52:13;;;;;;;;;;;;;;;;;;6323499;27;20349;-81
2023/10/13 03:55:17;;;;;;;;;;;;;;;;;;6331336;27;19923;-81
2023/10/13 03:58:17;;;;;;;;;;;;;;;;;;6309546;28;20386;-81
2023/10/13 04:01:18;;;;;;;;;;;;;;;;;;6314803;27;19960;-81
2023/10/13 04:07:56;;;;;;;;;;;;;;;;;;6341449;28;20357;-81
2023/10/13 04:15:14;;;;;;;;;;;;;;;;;;6324014;28;19963;-81
2023/10/13 04:17:45;;;;;;;;;;;;;;;;;;6325662;28;20006;-81
2023/10/13 04:20:46;;;;;;;;;;;;;;;;;;6314622;28;19927;-81
2023/10/13 04:30:18;;;;;;;;;;;;;;;;;;6327080;28;19912;-82
2023/10/13 04:34:12;;;;;;;;;;;;;;;;;;6311144;28;19919;-81
2023/10/13 04:36:45;;;;;;;;;;;;;;;;;;6304748;28;19959;-81
2023/10/13 04:39:45;;;;;;;;;;;;;;;;;;6320966;28;19923;-81
2023/10/13 04:42:57;;;;;;;;;;;;;;;;;;6311484;28;20454;-81
2023/10/13 04:45:58;;;;;;;;;;;;;;;;;;6312177;28;19961;-81
2023/10/13 04:49:00;;;;;;;;;;;;;;;;;;6300548;28;19912;-81
2023/10/13 04:55:36;;;;;;;;;;;;;;;;;;6332032;28;19912;-81
2023/10/13 05:02:18;;;;;;;;;;;;;;;;;;6344772;28;19908;-81
2023/10/13 05:05:45;;;;;;;;;;;;;;;;;;6331444;28;20367;-81
2023/10/13 05:45:25;;;;;;;;;;;;;;;;;;6338404;28;19919;-81
2023/10/13 05:49:03;;;;;;;;;;;;;;;;;;6327807;28;19995;-81
2023/10/13 05:51:59;;;;;;;;;;;;;;;;;;6334515;28;19916;-80
2023/10/13 06:31:29;;;;;;;;;;;;;;;;;;6321297;28;20357;-80
2023/10/13 06:34:42;;;;;;;;;;;;;;;;;;6328412;28;20392;-81
2023/10/13 06:37:42;;;;;;;;;;;;;;;;;;6331396;28;19924;-80
2023/10/13 06:40:46;;;;;;;;;;;;;;;;;;6329875;28;20378;-81
2023/10/13 06:43:58;;;;;;;;;;;;;;;;;;6342220;27;19908;-81
2023/10/13 06:47:03;;;;;;;;;;;;;;;;;;6312264;28;19928;-80
2023/10/13 06:50:04;;;;;;;;;;;;;;;;;;6315242;28;20027;-80
2023/10/13 06:53:04;;;;;;;;;;;;;;;;;;6317683;27;19919;-80
2023/10/13 06:56:04;;;;;;;;;;;;;;;;;;6333979;28;19923;-81
2023/10/13 06:59:04;;;;;;;;;;;;;;;;;;6332069;28;19928;-80
2023/10/13 07:02:06;;;;;;;;;;;;;;;;;;6329251;27;19912;-80
2023/10/13 07:05:11;;;;;;;;;;;;;;;;;;6324859;28;19908;-80
2023/10/13 07:08:17;;;;;;;;;;;;;;;;;;6329141;28;19907;-80
2023/10/13 07:11:42;;;;;;;;;;;;;;;;;;6328009;28;19908;-80
2023/10/13 07:14:38;;;;;;;;;;;;;;;;;;6324214;28;19916;-81
2023/10/13 07:17:44;;;;;;;;;;;;;;;;;;6309649;28;20515;-80
2023/10/13 07:20:44;;;;;;;;;;;;;;;;;;6327268;28;19912;-80
2023/10/13 07:24:00;;;;;;;;;;;;;;;;;;6319562;28;19927;-79
2023/10/13 07:27:05;;;;;;;;;;;;;;;;;;6322398;28;19912;-80
2023/10/13 07:30:13;;;;;;;;;;;;;;;;;;6325024;28;19965;-80
2023/10/13 07:33:14;;;;;;;;;;;;;;;;;;6300831;28;19995;-80
2023/10/13 07:36:24;;;;;;;;;;;;;;;;;;6318590;28;19990;-80
2023/10/13 07:39:25;;;;;;;;;;;;;;;;;;6331574;28;19923;-81
2023/10/13 07:42:30;;;;;;;;;;;;;;;;;;6311619;28;19939;-81
2023/10/13 07:45:36;;;;;;;;;;;;;;;;;;6335732;28;20373;-82
2023/10/13 07:48:37;;;;;;;;;;;;;;;;;;6332803;28;19912;-81
2023/10/13 07:51:44;;;;;;;;;;;;;;;;;;6312645;28;19919;-80
2023/10/13 07:54:44;;;;;;;;;;;;;;;;;;6330812;27;20011;-80
2023/10/13 07:57:53;;;;;;;;;;;;;;;;;;6325707;28;19919;-87
2023/10/13 08:04:11;;;;;;;;;;;;;;;;;;6330073;28;19917;-89
2023/10/13 08:07:14;;;;;;;;;;;;;;;;;;6323424;28;19908;-88
2023/10/13 08:10:16;;;;;;;;;;;;;;;;;;6308232;28;19923;-87
2023/10/13 08:13:18;;;;;;;;;;;;;;;;;;6341629;27;20382;-87
2023/10/13 08:16:22;;;;;;;;;;;;;;;;;;6319824;27;19911;-88
2023/10/13 08:22:47;;;;;;;;;;;;;;;;;;6331570;28;19916;-88
2023/10/13 08:35:33;;;;;;;;;;;;;;;;;;6321534;28;19919;-87
2023/10/13 08:38:50;;;;;;;;;;;;;;;;;;6312191;28;20421;-87
2023/10/13 08:41:58;;;;;;;;;;;;;;;;;;6326236;28;20002;-89
2023/10/13 08:45:04;;;;;;;;;;;;;;;;;;6334662;28;19919;-88
2023/10/13 08:48:14;;;;;;;;;;;;;;;;;;6304190;28;20297;-80
2023/10/13 08:51:31;;;;;;;;;;;;;;;;;;6335813;28;19920;-82
2023/10/13 08:54:34;;;;;;;;;;;;;;;;;;6340644;28;19912;-81
2023/10/13 08:57:34;;;;;;;;;;;;;;;;;;6325389;28;19923;-82
2023/10/13 09:03:54;;;;;;;;;;;;;;;;;;6327517;28;19908;-82
2023/10/13 09:10:11;;;;;;;;;;;;;;;;;;6323897;28;19926;-89
2023/10/13 09:13:20;;;;;;;;;;;;;;;;;;6321226;28;19907;-89
2023/10/13 09:16:59;;;;;;;;;;;;;;;;;;6333588;28;20456;-89
2023/10/13 09:19:47;;;;;;;;;;;;;;;;;;6337993;28;20409;-90
2023/10/13 09:26:08;;;;;;;;;;;;;;;;;;6324499;28;19912;-90
2023/10/13 09:29:12;;;;;;;;;;;;;;;;;;6336210;28;19927;-89
2023/10/13 09:32:12;;;;;;;;;;;;;;;;;;6336808;27;19973;-89
2023/10/13 09:35:13;;;;;;;;;;;;;;;;;;6337295;27;19912;-90
2023/10/13 09:38:15;;;;;;;;;;;;;;;;;;6318671;28;19912;-88
2023/10/13 09:41:18;;;;;;;;;;;;;;;;;;6324605;28;19916;-89
2023/10/13 09:44:21;;;;;;;;;;;;;;;;;;6327530;28;19961;-92
2023/10/13 09:47:29;;;;;;;;;;;;;;;;;;6315656;28;19916;-93
2023/10/13 09:50:33;;;;;;;;;;;;;;;;;;6314108;28;19920;-92
2023/10/13 09:53:34;;;;;;;;;;;;;;;;;;6336495;27;19916;-92
2023/10/13 09:56:42;;;;;;;;;;;;;;;;;;6334565;27;19985;-90
2023/10/13 09:59:49;;;;;;;;;;;;;;;;;;6322373;28;19930;-90
2023/10/13 10:02:49;;;;;;;;;;;;;;;;;;6335411;27;19920;-90
2023/10/13 10:05:49;;;;;;;;;;;;;;;;;;6328719;28;19924;-90
2023/10/13 10:08:50;;;;;;;;;;;;;;;;;;6312795;28;19916;-90
2023/10/13 10:11:50;;;;;;;;;;;;;;;;;;6314114;28;19962;-90
2023/10/13 10:14:54;;;;;;;;;;;;;;;;;;6321569;28;19947;-90
2023/10/13 10:17:55;;;;;;;;;;;;;;;;;;6327072;28;20305;-92
2023/10/13 10:20:56;;;;;;;;;;;;;;;;;;6314335;28;19911;-94
2023/10/13 10:23:56;;;;;;;;;;;;;;;;;;6309756;28;19916;-93
2023/10/13 10:26:56;;;;;;;;;;;;;;;;;;6304824;28;19912;-92
2023/10/13 10:29:56;;;;;;;;;;;;;;;;;;6317514;28;19915;-92
2023/10/13 10:32:59;;;;;;;;;;;;;;;;;;6312855;28;19959;-92
2023/10/13 10:35:59;;;;;;;;;;;;;;;;;;6316717;28;20668;-92
2023/10/13 10:39:00;;;;;;;;;;;;;;;;;;6322171;28;19912;-92
2023/10/13 10:42:02;;;;;;;;;;;;;;;;;;6303387;28;20578;-93
2023/10/13 10:45:05;;;;;;;;;;;;;;;;;;6312196;28;19944;-92
2023/10/13 10:48:16;;;;;;;;;;;;;;;;;;6324134;27;19916;-93
2023/10/13 10:51:23;;;;;;;;;;;;;;;;;;6323221;27;19912;-92
2023/10/13 10:54:29;;;;;;;;;;;;;;;;;;6326199;27;19916;-92
2023/10/13 10:57:36;;;;;;;;;;;;;;;;;;6307087;28;19922;-92
2023/10/13 11:00:46;;;;;;;;;;;;;;;;;;6339239;28;19924;-91
2023/10/13 11:03:46;;;;;;;;;;;;;;;;;;6327966;28;19923;-92
2023/10/13 11:06:46;;;;;;;;;;;;;;;;;;6320342;28;20397;-90
2023/10/13 11:09:47;;;;;;;;;;;;;;;;;;6318156;28;19938;-90
2023/10/13 11:12:49;;;;;;;;;;;;;;;;;;6329669;28;20447;-90
2023/10/13 11:15:50;;;;;;;;;;;;;;;;;;6323969;28;19969;-90
2023/10/13 11:18:50;;;;;;;;;;;;;;;;;;6336861;28;20018;-90
2023/10/13 11:21:50;;;;;;;;;;;;;;;;;;6323450;28;20408;-90
2023/10/13 11:24:50;;;;;;;;;;;;;;;;;;6314755;28;20031;-91
2023/10/13 11:30:51;;;;;;;;;;;;;;;;;;6341387;28;19919;-91
2023/10/13 11:33:56;;;;;;;;;;;;;;;;;;6320236;27;19916;-90
2023/10/13 11:36:58;;;;;;;;;;;;;;;;;;6322937;27;19916;-91
2023/10/13 11:39:58;;;;;;;;;;;;;;;;;;6338353;27;20374;-90
2023/10/13 11:42:58;;;;;;;;;;;;;;;;;;6311651;28;19997;-90
2023/10/13 11:52:17;;;;;;;;;;;;;;;;;;6344375;27;19908;-90
2023/10/13 11:55:17;;;;;;;;;;;;;;;;;;6315653;28;19915;-91
2023/10/13 11:58:18;;;;;;;;;;;;;;;;;;6317829;28;20046;-90
2023/10/13 12:07:45;;;;;;;;;;;;;;;;;;6334018;28;20273;-90
2023/10/13 12:11:00;;;;;;;;;;;;;;;;;;6337410;28;19911;-84
2023/10/13 12:14:11;;;;;;;;;;;;;;;;;;6324279;28;19916;-84
2023/10/13 12:17:13;;;;;;;;;;;;;;;;;;6329787;28;19963;-91
2023/10/13 12:20:18;;;;;;;;;;;;;;;;;;6332377;28;19919;-91
2023/10/13 12:23:20;;;;;;;;;;;;;;;;;;6333150;27;19961;-91
2023/10/13 12:26:21;;;;;;;;;;;;;;;;;;6333515;28;19916;-91
2023/10/13 12:29:22;;;;;;;;;;;;;;;;;;6335340;28;19912;-91
2023/10/13 12:32:25;;;;;;;;;;;;;;;;;;6320392;28;19919;-91
2023/10/13 12:35:34;;;;;;;;;;;;;;;;;;6327952;28;20389;-91
2023/10/13 12:51:50;;;;;;;;;;;;;;;;;;6337949;27;19912;-91
2023/10/13 12:55:06;;;;;;;;;;;;;;;;;;6318717;27;19916;-91
2023/10/13 12:58:06;;;;;;;;;;;;;;;;;;6338924;27;19928;-90
2023/10/13 13:01:06;;;;;;;;;;;;;;;;;;6342667;27;20059;-91
2023/10/13 13:04:11;;;;;;;;;;;;;;;;;;6324758;28;19965;-91
2023/10/13 13:07:14;;;;;;;;;;;;;;;;;;6331772;28;19912;-91
2023/10/13 13:10:15;;;;;;;;;;;;;;;;;;6307742;28;19923;-91
2023/10/13 13:13:16;;;;;;;;;;;;;;;;;;6323675;28;19912;-91
2023/10/13 13:16:23;;;;;;;;;;;;;;;;;;6314683;28;20362;-91
2023/10/13 13:19:25;;;;;;;;;;;;;;;;;;6322448;28;19938;-91
2023/10/13 13:22:41;;;;;;;;;;;;;;;;;;6328320;28;19912;-90
2023/10/13 13:25:42;;;;;;;;;;;;;;;;;;6326875;28;19916;-90
2023/10/13 13:28:42;;;;;;;;;;;;;;;;;;6311297;27;19942;-89
2023/10/13 13:31:43;;;;;;;;;;;;;;;;;;6315051;28;20321;-89
2023/10/13 13:34:44;;;;;;;;;;;;;;;;;;6320455;27;19914;-89
2023/10/13 13:37:44;;;;;;;;;;;;;;;;;;6323007;28;20292;-89
2023/10/13 13:40:48;;;;;;;;;;;;;;;;;;6315317;28;19960;-89
2023/10/13 13:43:55;;;;;;;;;;;;;;;;;;6317742;28;19919;-89
2023/10/13 13:46:56;;;;;;;;;;;;;;;;;;6320953;28;19912;-90
2023/10/13 13:49:56;;;;;;;;;;;;;;;;;;6309513;28;19913;-90
2023/10/13 13:52:56;;;;;;;;;;;;;;;;;;6319832;27;19912;-90
2023/10/13 13:55:56;;;;;;;;;;;;;;;;;;6320627;28;20011;-90
2023/10/13 13:58:57;;;;;;;;;;;;;;;;;;6306270;28;19924;-90
2023/10/13 14:01:59;;;;;;;;;;;;;;;;;;6321540;28;19912;-90
2023/10/13 14:05:02;;;;;;;;;;;;;;;;;;6305998;28;19923;-90
2023/10/13 14:08:02;;;;;;;;;;;;;;;;;;6316777;28;19955;-90
2023/10/13 14:11:21;;;;;;;;;;;;;;;;;;6339950;27;20285;-90
2023/10/13 14:17:28;;;;;;;;;;;;;;;;;;6345257;28;20281;-90
2023/10/13 14:20:28;;;;;;;;;;;;;;;;;;6332475;27;19991;-91
2023/10/13 14:23:30;;;;;;;;;;;;;;;;;;6306925;28;19908;-90
2023/10/13 14:26:30;;;;;;;;;;;;;;;;;;6307178;28;19947;-91
2023/10/13 14:29:31;;;;;;;;;;;;;;;;;;6308471;28;19908;-90
2023/10/13 14:32:31;;;;;;;;;;;;;;;;;;6320981;28;19908;-90
2023/10/13 14:35:31;;;;;;;;;;;;;;;;;;6337454;27;20369;-91
2023/10/13 14:38:31;;;;;;;;;;;;;;;;;;6320794;28;19922;-90
2023/10/13 14:41:31;;;;;;;;;;;;;;;;;;6311361;28;20348;-90
2023/10/13 14:44:31;;;;;;;;;;;;;;;;;;6309942;28;19918;-91
2023/10/13 14:47:32;;;;;;;;;;;;;;;;;;6317437;27;19911;-89
2023/10/13 14:50:33;;;;;;;;;;;;;;;;;;6311649;28;19912;-90
2023/10/13 14:53:33;;;;;;;;;;;;;;;;;;6322721;27;20326;-90
2023/10/13 14:56:33;;;;;;;;;;;;;;;;;;6322955;28;20457;-89
2023/10/13 14:59:38;;;;;;;;;;;;;;;;;;6292638;28;20325;-89
2023/10/13 15:02:38;;;;;;;;;;;;;;;;;;6289807;28;20385;-90
2023/10/13 15:05:38;;;;;;;;;;;;;;;;;;6290530;28;20537;-90
2023/10/13 15:08:42;;;;;;;;;;;;;;;;;;6300412;28;20065;-90
2023/10/13 15:11:45;;;;;;;;;;;;;;;;;;6304581;28;19977;-90
2023/10/13 15:14:45;;;;;;;;;;;;;;;;;;6298634;28;20286;-89
2023/10/13 15:17:46;;;;;;;;;;;;;;;;;;6287191;28;19917;-90
2023/10/13 15:20:46;;;;;;;;;;;;;;;;;;6299100;28;20384;-89
2023/10/13 15:23:46;;;;;;;;;;;;;;;;;;6314520;28;19957;-90
2023/10/13 15:26:57;;;;;;;;;;;;;;;;;;6294222;28;19916;-89
2023/10/13 15:29:59;;;;;;;;;;;;;;;;;;6287555;28;20374;-90
2023/10/13 15:33:00;;;;;;;;;;;;;;;;;;6315346;28;19943;-89
2023/10/13 15:36:00;;;;;;;;;;;;;;;;;;6304878;28;19912;-90
2023/10/13 15:39:01;;;;;;;;;;;;;;;;;;6282168;28;19962;-89
2023/10/13 15:42:02;;;;;;;;;;;;;;;;;;6287104;28;19919;-90
2023/10/13 15:45:07;;;;;;;;;;;;;;;;;;6276620;28;19929;-90
2023/10/13 15:48:07;;;;;;;;;;;;;;;;;;6313776;28;19920;-89
2023/10/13 15:51:07;;;;;;;;;;;;;;;;;;6282259;28;20007;-89
2023/10/13 15:54:16;;;;;;;;;;;;;;;;;;6291422;28;19920;-90
2023/10/13 15:57:16;;;;;;;;;;;;;;;;;;6294394;28;19918;-90
2023/10/13 16:00:23;;;;;;;;;;;;;;;;;;6313373;28;19920;-89
2023/10/13 16:03:23;;;;;;;;;;;;;;;;;;6314557;28;19911;-89
2023/10/13 16:06:25;;;;;;;;;;;;;;;;;;6313338;28;20647;-90
2023/10/13 16:09:25;;;;;;;;;;;;;;;;;;6309132;28;19916;-90
2023/10/13 16:12:28;;;;;;;;;;;;;;;;;;6315986;28;19912;-88
2023/10/13 16:15:28;;;;;;;;;;;;;;;;;;6320373;28;20336;-88
2023/10/13 16:18:32;;;;;;;;;;;;;;;;;;6316601;28;19920;-87
2023/10/13 16:21:33;;;;;;;;;;;;;;;;;;6304372;28;19997;-89
2023/10/13 16:24:33;;;;;;;;;;;;;;;;;;6309537;28;19918;-88
2023/10/13 16:27:38;;;;;;;;;;;;;;;;;;6309159;28;19927;-89
2023/10/13 16:30:39;;;;;;;;;;;;;;;;;;6310723;28;19915;-88
2023/10/13 16:33:42;;;;;;;;;;;;;;;;;;6311610;28;20404;-89
2023/10/13 16:36:46;;;;;;;;;;;;;;;;;;6299281;28;20018;-89
2023/10/13 16:39:46;;;;;;;;;;;;;;;;;;6315050;28;20301;-89
2023/10/13 16:42:46;;;;;;;;;;;;;;;;;;6307493;28;19920;-89
2023/10/13 16:45:47;;;;;;;;;;;;;;;;;;6317029;28;19939;-89
2023/10/13 16:48:50;;;;;;;;;;;;;;;;;;6304280;28;20742;-89
2023/10/13 16:51:50;;;;;;;;;;;;;;;;;;6317148;28;20011;-89
2023/10/13 16:54:50;;;;;;;;;;;;;;;;;;6331404;28;19911;-89
2023/10/13 16:57:50;;;;;;;;;;;;;;;;;;6316241;28;20310;-89
2023/10/13 17:00:53;;;;;;;;;;;;;;;;;;6312784;28;20006;-89
2023/10/13 17:03:54;;;;;;;;;;;;;;;;;;6306150;28;20027;-88
2023/10/13 17:06:54;;;;;;;;;;;;;;;;;;6301138;28;19965;-89
2023/10/13 17:09:56;;;;;;;;;;;;;;;;;;6303525;28;19961;-89
2023/10/13 17:12:57;;;;;;;;;;;;;;;;;;6322822;28;19912;-89
2023/10/13 17:15:59;;;;;;;;;;;;;;;;;;6310007;28;19928;-89
2023/10/13 17:19:01;;;;;;;;;;;;;;;;;;6323022;28;19923;-89
2023/10/13 17:22:03;;;;;;;;;;;;;;;;;;6329818;28;19916;-89
2023/10/13 17:25:03;;;;;;;;;;;;;;;;;;6305348;28;19919;-89
2023/10/13 17:28:12;;;;;;;;;;;;;;;;;;6308014;28;19953;-90
2023/10/13 17:31:13;;;;;;;;;;;;;;;;;;6318057;28;19912;-89
2023/10/13 17:34:13;;;;;;;;;;;;;;;;;;6310181;28;19916;-88
2023/10/13 17:37:14;;;;;;;;;;;;;;;;;;6309800;28;19954;-88
2023/10/13 17:40:17;;;;;;;;;;;;;;;;;;6335148;28;20324;-89
2023/10/13 17:43:18;;;;;;;;;;;;;;;;;;6308587;28;20370;-89
2023/10/13 17:46:20;;;;;;;;;;;;;;;;;;6320913;28;19968;-89
2023/10/13 17:49:21;;;;;;;;;;;;;;;;;;6318549;28;20332;-89
2023/10/13 17:52:21;;;;;;;;;;;;;;;;;;6314405;28;19908;-89
2023/10/13 17:55:21;;;;;;;;;;;;;;;;;;6317778;28;19916;-89
2023/10/13 17:58:21;;;;;;;;;;;;;;;;;;6317608;28;19926;-89
2023/10/13 18:01:21;;;;;;;;;;;;;;;;;;6318024;28;19923;-89
2023/10/13 18:04:22;;;;;;;;;;;;;;;;;;6318883;28;20293;-89
2023/10/13 18:07:25;;;;;;;;;;;;;;;;;;6305821;28;19915;-88
2023/10/13 18:10:25;;;;;;;;;;;;;;;;;;6300727;28;20278;-89
2023/10/13 18:13:25;;;;;;;;;;;;;;;;;;6315725;28;19916;-90
2023/10/13 18:16:25;;;;;;;;;;;;;;;;;;6314754;28;19955;-89
2023/10/13 18:19:27;;;;;;;;;;;;;;;;;;6312144;28;19996;-89
2023/10/13 18:22:27;;;;;;;;;;;;;;;;;;6310439;28;20018;-88
2023/10/13 18:25:29;;;;;;;;;;;;;;;;;;6307321;28;20282;-89
2023/10/13 18:28:33;;;;;;;;;;;;;;;;;;6311344;28;20258;-90
2023/10/13 18:31:33;;;;;;;;;;;;;;;;;;6305385;27;19916;-90
2023/10/13 18:34:33;;;;;;;;;;;;;;;;;;6307011;28;20014;-89
2023/10/13 18:37:34;;;;;;;;;;;;;;;;;;6307862;28;19925;-89
2023/10/13 18:40:36;;;;;;;;;;;;;;;;;;6315258;28;20410;-89
2023/10/13 18:43:38;;;;;;;;;;;;;;;;;;6322949;28;19912;-89
2023/10/13 18:46:38;;;;;;;;;;;;;;;;;;6316700;28;19998;-88
2023/10/13 18:49:38;;;;;;;;;;;;;;;;;;6314196;28;19915;-89
2023/10/13 18:52:41;;;;;;;;;;;;;;;;;;6304592;28;19908;-89
2023/10/13 18:55:41;;;;;;;;;;;;;;;;;;6312141;28;19912;-88
2023/10/13 18:58:42;;;;;;;;;;;;;;;;;;6302966;28;19924;-89
2023/10/13 19:01:42;;;;;;;;;;;;;;;;;;6314915;28;20437;-89
2023/10/13 19:04:42;;;;;;;;;;;;;;;;;;6314766;28;20327;-88
2023/10/13 19:07:42;;;;;;;;;;;;;;;;;;6315543;28;20622;-88
2023/10/13 19:10:42;;;;;;;;;;;;;;;;;;6298945;28;20339;-88
2023/10/13 19:13:43;;;;;;;;;;;;;;;;;;6316476;28;19919;-90
2023/10/13 19:16:46;;;;;;;;;;;;;;;;;;6312274;28;20334;-90
2023/10/13 19:19:46;;;;;;;;;;;;;;;;;;6331470;28;20324;-90
2023/10/13 19:22:50;;;;;;;;;;;;;;;;;;6304076;28;19920;-91
2023/10/13 19:25:51;;;;;;;;;;;;;;;;;;6323227;28;19947;-91
2023/10/13 19:28:53;;;;;;;;;;;;;;;;;;6310141;28;20323;-90
2023/10/13 19:31:55;;;;;;;;;;;;;;;;;;6307920;28;19912;-90
2023/10/13 19:34:55;;;;;;;;;;;;;;;;;;6331046;27;19951;-90
2023/10/13 19:37:55;;;;;;;;;;;;;;;;;;6312525;28;19926;-90
2023/10/13 19:40:55;;;;;;;;;;;;;;;;;;6316243;27;19949;-90
2023/10/13 19:44:04;;;;;;;;;;;;;;;;;;6310327;28;19916;-91
2023/10/13 19:47:04;;;;;;;;;;;;;;;;;;6313443;28;20312;-90
2023/10/13 19:50:05;;;;;;;;;;;;;;;;;;6311669;28;19912;-90
2023/10/13 19:53:08;;;;;;;;;;;;;;;;;;6310178;28;20366;-89
2023/10/13 19:56:08;;;;;;;;;;;;;;;;;;6311841;28;19908;-90
2023/10/13 19:59:08;;;;;;;;;;;;;;;;;;6305321;28;19943;-90
2023/10/13 20:02:09;;;;;;;;;;;;;;;;;;6308590;28;19912;-90
2023/10/13 20:05:09;;;;;;;;;;;;;;;;;;6316159;28;20460;-89
2023/10/13 20:08:11;;;;;;;;;;;;;;;;;;6329499;28;19938;-89
2023/10/13 20:11:15;;;;;;;;;;;;;;;;;;6317825;28;19927;-90
2023/10/13 20:14:15;;;;;;;;;;;;;;;;;;6319745;28;19912;-90
2023/10/13 20:17:15;;;;;;;;;;;;;;;;;;6316957;28;19958;-89
2023/10/13 20:20:18;;;;;;;;;;;;;;;;;;6332213;28;19916;-89
2023/10/13 20:23:19;;;;;;;;;;;;;;;;;;6334355;28;19908;-89
2023/10/13 20:26:19;;;;;;;;;;;;;;;;;;6321246;28;19908;-89
2023/10/13 20:29:19;;;;;;;;;;;;;;;;;;6332488;28;19969;-89
2023/10/13 20:32:19;;;;;;;;;;;;;;;;;;6315909;28;19916;-88
2023/10/13 20:35:22;;;;;;;;;;;;;;;;;;6322114;28;19937;-88
2023/10/13 20:38:24;;;;;;;;;;;;;;;;;;6342214;28;19923;-89
2023/10/13 20:41:27;;;;;;;;;;;;;;;;;;6325855;28;19909;-90
2023/10/13 20:44:27;;;;;;;;;;;;;;;;;;6325209;28;19918;-90
2023/10/13 20:47:27;;;;;;;;;;;;;;;;;;6329550;27;19920;-89
2023/10/13 20:50:27;;;;;;;;;;;;;;;;;;6342928;28;19924;-89
2023/10/13 20:53:28;;;;;;;;;;;;;;;;;;6340923;27;19962;-89
2023/10/13 20:56:28;;;;;;;;;;;;;;;;;;6344048;27;19919;-90
2023/10/13 20:59:28;;;;;;;;;;;;;;;;;;6340658;28;19930;-89
2023/10/13 21:02:28;;;;;;;;;;;;;;;;;;6319204;28;19995;-89
2023/10/13 21:05:31;;;;;;;;;;;;;;;;;;6304561;28;19912;-90
2023/10/13 21:08:32;;;;;;;;;;;;;;;;;;6344406;28;19912;-89
2023/10/13 21:11:32;;;;;;;;;;;;;;;;;;6305925;28;20286;-89
2023/10/13 21:14:33;;;;;;;;;;;;;;;;;;6316575;28;20006;-89
2023/10/13 21:17:34;;;;;;;;;;;;;;;;;;6341022;28;19920;-90
2023/10/13 21:20:34;;;;;;;;;;;;;;;;;;6316356;28;19969;-89
2023/10/13 21:23:34;;;;;;;;;;;;;;;;;;6329182;28;19918;-89
2023/10/13 21:26:34;;;;;;;;;;;;;;;;;;6310805;28;19912;-89
2023/10/13 21:29:37;;;;;;;;;;;;;;;;;;6318729;28;19919;-89
2023/10/13 21:32:37;;;;;;;;;;;;;;;;;;6304430;28;19908;-89
2023/10/13 21:35:39;;;;;;;;;;;;;;;;;;6320925;27;19908;-90
2023/10/13 21:38:39;;;;;;;;;;;;;;;;;;6307879;28;19916;-89
2023/10/13 21:41:41;;;;;;;;;;;;;;;;;;6308493;28;20293;-89
2023/10/13 21:44:42;;;;;;;;;;;;;;;;;;6312418;28;19985;-90
2023/10/13 21:47:43;;;;;;;;;;;;;;;;;;6335382;28;19919;-89
2023/10/13 21:50:43;;;;;;;;;;;;;;;;;;6307229;28;19910;-89
2023/10/13 21:53:43;;;;;;;;;;;;;;;;;;6314557;28;19969;-90
2023/10/13 21:56:43;;;;;;;;;;;;;;;;;;6317687;28;19951;-90
2023/10/13 21:59:44;;;;;;;;;;;;;;;;;;6311451;28;19947;-90
2023/10/13 22:02:44;;;;;;;;;;;;;;;;;;6313139;28;20385;-90
2023/10/13 22:05:44;;;;;;;;;;;;;;;;;;6313117;28;19911;-89
2023/10/13 22:08:45;;;;;;;;;;;;;;;;;;6320880;28;19998;-91
2023/10/13 22:11:46;;;;;;;;;;;;;;;;;;6325412;28;19916;-92
2023/10/13 22:14:46;;;;;;;;;;;;;;;;;;6317509;28;19916;-91
2023/10/13 22:17:46;;;;;;;;;;;;;;;;;;6315520;28;20306;-91
2023/10/13 22:20:47;;;;;;;;;;;;;;;;;;6320007;28;20602;-92
2023/10/13 22:23:47;;;;;;;;;;;;;;;;;;6312865;28;19908;-91
2023/10/13 22:26:47;;;;;;;;;;;;;;;;;;6338044;28;20046;-92
2023/10/13 22:29:48;;;;;;;;;;;;;;;;;;6319029;28;20010;-92
2023/10/13 22:32:49;;;;;;;;;;;;;;;;;;6313820;28;19954;-92
2023/10/13 22:35:50;;;;;;;;;;;;;;;;;;6336893;27;19916;-92
2023/10/13 22:38:52;;;;;;;;;;;;;;;;;;6305288;28;19920;-91
2023/10/13 22:41:52;;;;;;;;;;;;;;;;;;6320591;28;19946;-92
2023/10/13 22:44:54;;;;;;;;;;;;;;;;;;6312017;28;19908;-91
2023/10/13 22:47:54;;;;;;;;;;;;;;;;;;6318526;28;19915;-90
2023/10/13 22:50:54;;;;;;;;;;;;;;;;;;6304059;28;19918;-92
2023/10/13 22:53:54;;;;;;;;;;;;;;;;;;6312025;28;19912;-91
2023/10/13 22:56:56;;;;;;;;;;;;;;;;;;6316532;28;19994;-91
2023/10/13 22:59:56;;;;;;;;;;;;;;;;;;6310732;28;20449;-91
2023/10/13 23:02:58;;;;;;;;;;;;;;;;;;6312872;28;19912;-91
2023/10/13 23:06:04;;;;;;;;;;;;;;;;;;6316772;28;19908;-91
2023/10/13 23:09:24;;;;;;;;;;;;;;;;;;6326077;28;20431;-90
2023/10/13 23:12:25;;;;;;;;;;;;;;;;;;6314833;28;20274;-90
2023/10/13 23:15:26;;;;;;;;;;;;;;;;;;6342568;28;19972;-89
2023/10/13 23:18:28;;;;;;;;;;;;;;;;;;6318984;28;20273;-89
2023/10/13 23:21:28;;;;;;;;;;;;;;;;;;6316185;28;20366;-90